createdAt,value
2022-11-04T00:00:41.306Z,5.72
2022-11-04T00:03:07.928Z,7.25
2022-11-04T00:05:34.430Z,8.90
2022-11-04T00:08:00.795Z,8.55
2022-11-04T00:10:27.163Z,11.03
2022-11-04T00:12:53.616Z,13.70
2022-11-04T00:15:22.645Z,14.52
2022-11-04T00:17:49.040Z,21.30
2022-11-04T00:20:15.498Z,22.05
2022-11-04T00:22:42.721Z,25.00
2022-11-04T00:25:09.822Z,24.58
2022-11-04T00:27:36.211Z,26.63
2022-11-04T00:30:04.193Z,32.95
2022-11-04T00:32:32.159Z,28.98
2022-11-04T00:34:58.615Z,34.93
2022-11-04T00:37:25.042Z,33.85
2022-11-04T00:39:51.421Z,34.67
2022-11-04T00:42:17.813Z,37.15
2022-11-04T00:44:44.210Z,34.80
2022-11-04T00:47:10.633Z,37.97
2022-11-04T00:49:36.975Z,37.55
2022-11-04T00:52:03.444Z,37.33
2022-11-04T00:54:29.910Z,34.63
2022-11-04T00:56:56.364Z,38.80
2022-11-04T00:59:22.713Z,47.40
2022-11-04T01:01:49.161Z,47.33
2022-11-04T01:04:15.635Z,47.15
2022-11-04T01:06:42.083Z,51.10
2022-11-04T01:09:09.113Z,48.78
2022-11-04T01:11:35.590Z,48.87
2022-11-04T01:14:02.010Z,42.92
2022-11-04T01:16:29.057Z,41.30
2022-11-04T01:18:55.742Z,44.65
2022-11-04T01:21:22.210Z,47.85
2022-11-04T01:23:48.636Z,49.70
2022-11-04T01:26:21.269Z,45.13
2022-11-04T01:28:48.219Z,48.47
2022-11-04T01:31:18.176Z,46.22
2022-11-04T01:33:44.880Z,45.78
2022-11-04T01:36:11.486Z,57.20
2022-11-04T01:38:37.907Z,64.82
2022-11-04T01:41:04.913Z,65.15
2022-11-04T01:43:58.731Z,67.40
2022-11-04T01:46:33.897Z,69.25
2022-11-04T01:49:24.587Z,65.07
2022-11-04T01:52:13.512Z,53.53
2022-11-04T01:54:41.917Z,45.60
2022-11-04T01:57:15.119Z,40.20
2022-11-04T01:59:42.052Z,39.78
2022-11-04T02:02:08.759Z,38.50
2022-11-04T02:04:37.013Z,35.25
2022-11-04T02:07:07.690Z,30.83
2022-11-04T02:09:36.113Z,28.27
2022-11-04T02:12:03.099Z,30.52
2022-11-04T02:14:31.015Z,30.67
2022-11-04T02:17:25.024Z,30.42
2022-11-04T02:20:03.678Z,26.67
2022-11-04T02:23:08.059Z,26.63
2022-11-04T02:26:02.693Z,25.92
2022-11-04T02:28:38.722Z,26.80
2022-11-04T02:31:29.449Z,24.23
2022-11-04T02:34:14.452Z,23.08
2022-11-04T02:36:52.728Z,28.05
2022-11-04T02:39:31.116Z,24.13
2022-11-04T02:42:39.146Z,22.23
2022-11-04T02:45:22.351Z,26.17
2022-11-04T02:47:54.262Z,24.73
2022-11-04T02:50:20.758Z,25.83
2022-11-04T02:52:51.558Z,25.52
2022-11-04T02:55:25.728Z,28.83
2022-11-04T02:57:55.872Z,32.95
2022-11-04T03:00:22.441Z,23.73
2022-11-04T03:03:07.177Z,27.58
2022-11-04T03:05:36.623Z,24.13
2022-11-04T03:08:08.957Z,23.10
2022-11-04T03:10:37.181Z,25.83
2022-11-04T03:13:15.709Z,27.35
2022-11-04T03:15:52.727Z,27.00
2022-11-04T03:18:28.145Z,29.90
2022-11-04T03:20:58.312Z,22.33
2022-11-04T03:23:24.743Z,26.70
2022-11-04T03:25:56.944Z,24.98
2022-11-04T03:28:49.684Z,25.52
2022-11-04T03:31:32.768Z,29.45
2022-11-04T03:33:59.205Z,23.97
2022-11-04T03:36:27.113Z,24.15
2022-11-04T03:38:53.767Z,26.23
2022-11-04T03:41:30.758Z,25.52
2022-11-04T03:43:57.447Z,24.92
2022-11-04T03:46:24.085Z,24.27
2022-11-04T03:48:53.003Z,27.05
2022-11-04T03:51:19.738Z,26.05
2022-11-04T03:53:46.115Z,30.17
2022-11-04T03:56:21.403Z,25.45
2022-11-04T03:58:56.995Z,30.73
2022-11-04T04:01:56.058Z,24.92
2022-11-04T04:04:34.496Z,23.10
2022-11-04T04:07:33.264Z,22.40
2022-11-04T04:10:19.886Z,22.10
2022-11-04T04:12:48.045Z,20.80
2022-11-04T04:15:22.330Z,27.90
2022-11-04T04:17:58.938Z,19.60
2022-11-04T04:20:29.113Z,20.08
2022-11-04T04:23:04.075Z,24.25
2022-11-04T04:25:32.832Z,20.57
2022-11-04T04:28:01.214Z,21.35
2022-11-04T04:30:27.993Z,19.90
2022-11-04T04:33:03.358Z,23.52
2022-11-04T04:35:34.173Z,23.13
2022-11-04T04:38:06.985Z,22.23
2022-11-04T04:40:34.745Z,18.48
2022-11-04T04:43:01.167Z,22.35
2022-11-04T04:45:33.300Z,20.13
2022-11-04T04:47:59.752Z,22.33
2022-11-04T04:50:31.356Z,18.27
2022-11-04T04:53:00.006Z,19.98
2022-11-04T04:55:26.428Z,19.38
2022-11-04T04:57:52.866Z,25.60
2022-11-04T05:00:21.056Z,21.15
2022-11-04T05:02:48.911Z,18.30
2022-11-04T05:07:47.889Z,21.85
2022-11-04T05:10:16.175Z,17.88
2022-11-04T05:12:43.131Z,21.73
2022-11-04T05:15:09.856Z,22.50
2022-11-04T05:17:36.270Z,24.17
2022-11-04T05:20:02.675Z,26.42
2022-11-04T05:22:29.102Z,24.65
2022-11-04T05:24:55.459Z,25.38
2022-11-04T05:27:21.828Z,25.20
2022-11-04T05:29:48.249Z,25.52
2022-11-04T05:32:14.666Z,24.77
2022-11-04T05:34:41.041Z,24.83
2022-11-04T05:37:07.461Z,25.13
2022-11-04T05:39:33.804Z,22.10
2022-11-04T05:42:00.588Z,24.63
2022-11-04T05:44:27.014Z,24.85
2022-11-04T05:46:53.405Z,20.08
2022-11-04T05:49:19.794Z,23.13
2022-11-04T05:51:46.333Z,23.03
2022-11-04T05:54:12.765Z,26.50
2022-11-04T05:56:39.162Z,21.02
2022-11-04T05:59:05.523Z,19.48
2022-11-04T06:01:40.694Z,23.42
2022-11-04T06:04:07.552Z,24.00
2022-11-04T06:06:36.251Z,20.88
2022-11-04T06:09:03.377Z,21.33
2022-11-04T06:11:30.367Z,19.35
2022-11-04T06:13:57.700Z,27.30
2022-11-04T06:16:24.962Z,27.17
2022-11-04T06:18:51.697Z,28.83
2022-11-04T06:21:21.160Z,24.60
2022-11-04T06:23:48.642Z,30.38
2022-11-04T06:26:15.815Z,26.35
2022-11-04T06:28:42.568Z,20.97
2022-11-04T06:31:12.125Z,21.63
2022-11-04T06:33:38.808Z,24.25
2022-11-04T06:36:07.465Z,25.27
2022-11-04T06:38:35.668Z,26.33
2022-11-04T06:41:02.177Z,25.50
2022-11-04T06:43:28.702Z,23.17
2022-11-04T06:45:56.112Z,23.70
2022-11-04T06:48:22.621Z,19.90
2022-11-04T06:50:49.006Z,23.40
2022-11-04T06:53:15.427Z,19.43
2022-11-04T06:55:42.447Z,20.27
2022-11-04T06:58:09.398Z,24.27
2022-11-04T07:00:35.816Z,19.30
2022-11-04T07:03:02.284Z,18.48
2022-11-04T07:05:28.716Z,19.53
2022-11-04T07:07:55.162Z,20.40
2022-11-04T07:10:21.699Z,19.85
2022-11-04T07:12:48.153Z,18.65
2022-11-04T07:15:14.519Z,19.70
2022-11-04T07:17:40.941Z,23.43
2022-11-04T07:20:07.820Z,18.42
2022-11-04T07:22:34.206Z,23.23
2022-11-04T07:25:00.662Z,21.75
2022-11-04T07:27:27.045Z,22.83
2022-11-04T07:29:53.516Z,19.50
2022-11-04T07:32:19.945Z,22.10
2022-11-04T07:34:46.348Z,23.58
2022-11-04T07:37:12.736Z,23.08
2022-11-04T07:39:39.119Z,21.63
2022-11-04T07:42:07.684Z,22.77
2022-11-04T07:44:34.393Z,21.83
2022-11-04T07:47:00.800Z,19.38
2022-11-04T07:49:27.307Z,24.33
2022-11-04T07:51:53.719Z,21.85
2022-11-04T07:54:20.238Z,18.53
2022-11-04T07:56:46.694Z,21.25
2022-11-04T07:59:13.078Z,16.67
2022-11-04T08:01:39.546Z,18.20
2022-11-04T08:04:06.009Z,17.98
2022-11-04T08:06:32.531Z,17.40
2022-11-04T08:08:59.435Z,19.00
2022-11-04T08:11:26.290Z,23.88
2022-11-04T08:13:52.679Z,18.50
2022-11-04T08:16:21.533Z,23.65
2022-11-04T08:18:49.697Z,19.70
2022-11-04T08:21:16.435Z,20.95
2022-11-04T08:23:43.161Z,17.85
2022-11-04T08:26:16.713Z,17.40
2022-11-04T08:28:43.530Z,19.70
2022-11-04T08:31:14.979Z,18.60
2022-11-04T08:33:42.258Z,16.50
2022-11-04T08:36:13.623Z,18.70
2022-11-04T08:38:40.205Z,19.00
2022-11-04T08:41:08.707Z,16.90
2022-11-04T08:43:35.732Z,19.80
2022-11-04T08:46:03.834Z,18.55
2022-11-04T08:48:30.390Z,20.70
2022-11-04T08:50:58.075Z,17.42
2022-11-04T08:53:25.437Z,21.90
2022-11-04T08:55:52.429Z,18.60
2022-11-04T08:58:18.979Z,19.30
2022-11-04T09:00:45.391Z,15.52
2022-11-04T09:03:12.189Z,20.77
2022-11-04T09:05:40.953Z,16.98
2022-11-04T09:08:07.335Z,64.33
2022-11-04T09:10:33.779Z,21.10
2022-11-04T09:13:00.243Z,23.20
2022-11-04T09:15:26.960Z,19.33
2022-11-04T09:17:53.386Z,20.70
2022-11-04T09:20:20.809Z,22.33
2022-11-04T09:22:47.248Z,19.05
2022-11-04T09:25:13.746Z,17.55
2022-11-04T09:27:40.145Z,20.80
2022-11-04T09:30:07.009Z,23.95
2022-11-04T09:32:33.436Z,20.47
2022-11-04T09:34:59.896Z,19.73
2022-11-04T09:37:26.422Z,20.25
2022-11-04T09:39:54.013Z,21.83
2022-11-04T09:42:38.519Z,19.88
2022-11-04T09:45:21.630Z,18.80
2022-11-04T09:47:52.752Z,19.95
2022-11-04T09:50:24.306Z,21.00
2022-11-04T09:53:07.557Z,23.77
2022-11-04T09:56:00.544Z,18.40
2022-11-04T09:58:32.599Z,19.70
2022-11-04T10:01:15.280Z,21.73
2022-11-04T10:03:52.619Z,26.48
2022-11-04T10:06:35.571Z,22.63
2022-11-04T10:09:14.145Z,21.17
2022-11-04T10:12:05.128Z,23.30
2022-11-04T10:14:43.729Z,20.35
2022-11-04T10:17:16.155Z,20.08
2022-11-04T10:20:03.470Z,20.92
2022-11-04T10:22:34.168Z,19.13
2022-11-04T10:25:47.048Z,19.67
2022-11-04T10:28:18.209Z,20.40
2022-11-04T10:30:48.943Z,24.10
2022-11-04T10:33:18.351Z,24.77
2022-11-04T10:35:48.406Z,22.75
2022-11-04T10:38:33.532Z,25.17
2022-11-04T10:41:05.963Z,22.20
2022-11-04T10:43:37.683Z,22.85
2022-11-04T10:46:38.417Z,27.63
2022-11-04T10:49:08.316Z,25.83
2022-11-04T10:51:34.725Z,23.23
2022-11-04T10:54:01.394Z,23.33
2022-11-04T10:56:47.982Z,20.23
2022-11-04T10:59:23.136Z,20.08
2022-11-04T11:02:00.466Z,24.67
2022-11-04T11:04:37.788Z,25.77
2022-11-04T11:07:06.806Z,22.30
2022-11-04T11:09:35.851Z,24.83
2022-11-04T11:12:48.922Z,23.40
2022-11-04T11:15:19.085Z,24.98
2022-11-04T11:17:46.785Z,26.10
2022-11-04T11:20:24.641Z,23.10
2022-11-04T11:22:51.929Z,22.00
2022-11-04T11:25:24.031Z,20.70
2022-11-04T11:28:09.744Z,22.20
2022-11-04T11:30:45.154Z,22.80
2022-11-04T11:33:28.735Z,19.05
2022-11-04T11:36:01.026Z,22.25
2022-11-04T11:38:30.449Z,21.35
2022-11-04T11:41:29.982Z,20.50
2022-11-04T11:44:00.081Z,16.93
2022-11-04T11:46:32.547Z,18.75
2022-11-04T11:49:01.136Z,15.93
2022-11-04T11:51:32.423Z,20.17
2022-11-04T11:54:19.365Z,18.63
2022-11-04T12:02:56.582Z,13.38
2022-11-04T12:12:06.935Z,11.90
2022-11-04T12:14:48.819Z,13.73
2022-11-04T12:17:47.292Z,14.73
2022-11-04T12:20:25.901Z,14.60
2022-11-04T12:23:01.112Z,10.95
2022-11-04T12:25:33.302Z,13.57
2022-11-04T12:28:27.247Z,11.85
2022-11-04T12:30:59.591Z,12.02
2022-11-04T12:33:38.169Z,11.80
2022-11-04T12:36:14.309Z,10.43
2022-11-04T12:38:59.042Z,11.57
2022-11-04T12:42:06.458Z,12.02
2022-11-04T12:44:36.262Z,13.13
2022-11-04T12:47:27.988Z,10.45
2022-11-04T12:50:27.299Z,10.88
2022-11-04T12:53:13.113Z,14.57
2022-11-04T12:55:46.033Z,9.13
2022-11-04T12:58:27.543Z,9.20
2022-11-04T13:01:01.544Z,10.52
2022-11-04T13:03:57.767Z,9.02
2022-11-04T13:06:31.128Z,8.40
2022-11-04T13:09:08.697Z,8.18
2022-11-04T13:11:47.232Z,7.97
2022-11-04T13:14:26.845Z,8.55
2022-11-04T13:16:56.247Z,7.95
2022-11-04T13:19:29.566Z,5.73
2022-11-04T13:21:58.387Z,5.38
2022-11-04T13:24:35.717Z,6.70
2022-11-04T13:27:14.313Z,9.02
2022-11-04T13:29:41.493Z,7.72
2022-11-04T13:32:23.586Z,6.27
2022-11-04T13:35:02.948Z,5.28
2022-11-04T13:37:41.594Z,5.05
2022-11-04T13:40:20.035Z,5.93
2022-11-04T13:43:20.052Z,6.88
2022-11-04T13:45:52.009Z,6.13
2022-11-04T13:48:21.641Z,9.00
2022-11-04T13:50:56.899Z,8.73
2022-11-04T13:53:50.396Z,5.85
2022-11-04T13:56:49.310Z,6.40
2022-11-04T13:59:18.739Z,7.67
2022-11-04T14:01:45.861Z,8.30
2022-11-04T14:04:27.005Z,7.40
2022-11-04T14:06:58.732Z,8.15
2022-11-04T14:09:43.175Z,6.75
2022-11-04T14:12:12.641Z,7.27
2022-11-04T14:14:42.548Z,9.43
2022-11-04T14:17:33.720Z,8.10
2022-11-04T14:20:00.096Z,6.10
2022-11-04T14:22:51.675Z,7.22
2022-11-04T14:25:19.702Z,5.13
2022-11-04T14:27:49.172Z,6.63
2022-11-04T14:30:44.081Z,5.35
2022-11-04T14:33:50.492Z,7.90
2022-11-04T14:36:19.936Z,5.75
2022-11-04T14:39:07.243Z,7.80
2022-11-04T14:41:39.795Z,6.15
2022-11-04T14:44:12.343Z,8.35
2022-11-04T14:46:45.092Z,6.72
2022-11-04T14:49:50.693Z,8.38
2022-11-04T14:52:20.308Z,6.37
2022-11-04T14:54:47.510Z,6.78
2022-11-04T14:57:19.207Z,8.50
2022-11-04T14:59:46.522Z,7.75
2022-11-04T15:02:22.570Z,7.30
2022-11-04T15:04:57.464Z,7.10
2022-11-04T15:07:34.477Z,7.28
2022-11-04T15:10:02.223Z,8.13
2022-11-04T15:12:28.712Z,6.93
2022-11-04T15:14:55.813Z,7.88
2022-11-04T15:17:25.922Z,11.37
2022-11-04T15:19:56.186Z,12.98
2022-11-04T15:22:23.784Z,11.70
2022-11-04T15:24:50.212Z,10.48
2022-11-04T15:27:24.395Z,11.63
2022-11-04T15:29:59.480Z,6.63
2022-11-04T15:32:26.849Z,6.55
2022-11-04T15:34:54.547Z,6.07
2022-11-04T15:37:23.436Z,8.20
2022-11-04T15:39:56.476Z,8.07
2022-11-04T15:42:26.450Z,7.23
2022-11-04T15:44:55.026Z,8.63
2022-11-04T15:47:25.386Z,9.02
2022-11-04T15:49:53.169Z,7.85
2022-11-04T15:52:23.016Z,10.27
2022-11-04T15:54:54.135Z,7.80
2022-11-04T15:57:40.267Z,8.57
2022-11-04T16:00:20.665Z,9.93
2022-11-04T16:03:00.818Z,10.65
2022-11-04T16:05:32.122Z,10.65
2022-11-04T16:08:21.547Z,11.00
2022-11-04T16:10:49.456Z,8.85
2022-11-04T16:13:15.822Z,10.07
2022-11-04T16:15:51.814Z,13.85
2022-11-04T16:18:22.779Z,11.05
2022-11-04T16:20:50.727Z,12.30
2022-11-04T16:23:20.549Z,11.02
2022-11-04T16:25:47.620Z,13.40
2022-11-04T16:28:21.246Z,11.70
2022-11-04T16:31:02.475Z,12.57
2022-11-04T16:33:28.954Z,10.90
2022-11-04T16:35:55.612Z,8.68
2022-11-04T16:38:22.386Z,11.65
2022-11-04T16:40:49.474Z,11.07
2022-11-04T16:43:18.840Z,10.43
2022-11-04T16:45:53.278Z,9.33
2022-11-04T16:48:20.686Z,10.77
2022-11-04T16:50:47.738Z,8.35
2022-11-04T16:53:14.140Z,9.60
2022-11-04T16:55:42.547Z,9.95
2022-11-04T16:58:17.600Z,8.27
2022-11-04T17:00:44.155Z,10.50
2022-11-04T17:03:19.670Z,9.57
2022-11-04T17:05:46.196Z,8.57
2022-11-04T17:08:12.702Z,8.75
2022-11-04T17:10:39.090Z,9.53
2022-11-04T17:13:05.483Z,9.25
2022-11-04T17:15:31.894Z,10.63
2022-11-04T17:17:58.298Z,12.45
2022-11-04T17:20:24.796Z,10.02
2022-11-04T17:22:51.214Z,11.23
2022-11-04T17:25:24.027Z,11.02
2022-11-04T17:27:50.645Z,8.35
2022-11-04T17:30:18.467Z,9.48
2022-11-04T17:32:46.160Z,10.82
2022-11-04T17:35:13.083Z,11.63
2022-11-04T17:37:39.506Z,11.68
2022-11-04T17:40:07.117Z,16.90
2022-11-04T17:42:33.562Z,17.80
2022-11-04T17:44:59.981Z,17.27
2022-11-04T17:47:26.351Z,15.73
2022-11-04T17:49:52.893Z,16.15
2022-11-04T17:52:19.278Z,15.50
2022-11-04T17:54:45.703Z,16.60
2022-11-04T17:57:12.077Z,15.77
2022-11-04T17:59:38.450Z,17.57
2022-11-04T18:02:05.047Z,24.95
2022-11-04T18:04:31.533Z,24.27
2022-11-04T18:07:02.523Z,23.33
2022-11-04T18:09:30.831Z,20.15
2022-11-04T18:11:57.287Z,25.27
2022-11-04T18:14:23.853Z,20.65
2022-11-04T18:16:50.291Z,23.02
2022-11-04T18:19:19.215Z,19.20
2022-11-04T18:21:46.239Z,26.80
2022-11-04T18:24:13.543Z,25.90
2022-11-04T18:26:40.229Z,24.60
2022-11-04T18:29:06.822Z,23.83
2022-11-04T18:31:38.884Z,26.60
2022-11-04T18:34:07.514Z,25.52
2022-11-04T18:36:34.304Z,26.07
2022-11-04T18:39:01.690Z,29.85
2022-11-04T18:41:28.504Z,24.70
2022-11-04T18:43:54.922Z,24.58
2022-11-04T18:46:21.347Z,24.10
2022-11-04T18:48:49.611Z,25.90
2022-11-04T18:51:17.690Z,25.83
2022-11-04T18:53:44.117Z,26.80
2022-11-04T18:56:15.721Z,25.33
2022-11-04T18:58:42.647Z,22.65
2022-11-04T19:01:13.592Z,17.23
2022-11-04T19:03:40.050Z,16.05
2022-11-04T19:06:09.460Z,16.30
2022-11-04T19:08:36.240Z,14.60
2022-11-04T19:11:13.948Z,14.57
2022-11-04T19:13:40.483Z,16.03
2022-11-04T19:16:09.413Z,14.80
2022-11-04T19:18:35.915Z,16.35
2022-11-04T19:21:11.708Z,14.30
2022-11-04T19:23:38.896Z,20.55
2022-11-04T19:26:23.115Z,16.07
2022-11-04T19:28:50.168Z,19.75
2022-11-04T19:31:22.275Z,18.33
2022-11-04T19:33:49.557Z,16.48
2022-11-04T19:36:17.872Z,15.40
2022-11-04T19:38:44.273Z,13.80
2022-11-04T19:41:16.058Z,18.17
2022-11-04T19:43:42.437Z,17.48
2022-11-04T19:46:08.801Z,19.85
2022-11-04T19:48:35.185Z,22.92
2022-11-04T19:51:01.657Z,20.13
2022-11-04T19:53:28.040Z,22.63
2022-11-04T19:55:55.555Z,19.25
2022-11-04T19:58:21.992Z,28.55
2022-11-04T20:00:48.423Z,26.75
2022-11-04T20:03:14.867Z,27.93
2022-11-04T20:05:42.883Z,27.55
2022-11-04T20:08:09.974Z,26.00
2022-11-04T20:10:39.088Z,26.77
2022-11-04T20:13:05.851Z,28.70
2022-11-04T20:15:32.293Z,25.57
2022-11-04T20:17:59.303Z,26.75
2022-11-04T20:20:25.736Z,26.92
2022-11-04T20:22:52.216Z,22.73
2022-11-04T20:25:18.617Z,19.17
2022-11-04T20:27:45.036Z,19.70
2022-11-04T20:30:11.646Z,18.30
2022-11-04T20:32:38.103Z,20.50
2022-11-04T20:35:04.809Z,28.25
2022-11-04T20:37:31.203Z,19.45
2022-11-04T20:39:57.637Z,19.57
2022-11-04T20:42:24.342Z,15.18
2022-11-04T20:44:50.745Z,14.80
2022-11-04T20:47:17.174Z,18.38
2022-11-04T20:49:43.646Z,16.30
2022-11-04T20:52:10.137Z,13.67
2022-11-04T20:54:36.514Z,12.32
2022-11-04T20:57:03.014Z,12.88
2022-11-04T20:59:29.467Z,13.65
2022-11-04T21:01:56.002Z,11.30
2022-11-04T21:04:23.200Z,11.30
2022-11-04T21:06:51.245Z,10.52
2022-11-04T21:09:20.106Z,14.35
2022-11-04T21:11:47.483Z,14.93
2022-11-04T21:14:15.519Z,16.40
2022-11-04T21:16:42.552Z,21.20
2022-11-04T21:19:09.965Z,13.57
2022-11-04T21:21:36.349Z,9.68
2022-11-04T21:24:05.423Z,11.35
2022-11-04T21:26:34.208Z,10.50
2022-11-04T21:29:03.733Z,11.20
2022-11-04T21:31:32.626Z,13.85
2022-11-04T21:33:59.505Z,11.45
2022-11-04T21:36:26.087Z,11.00
2022-11-04T21:38:52.615Z,9.68
2022-11-04T21:41:21.827Z,11.90
2022-11-04T21:43:48.453Z,12.38
2022-11-04T21:46:15.868Z,12.07
2022-11-04T21:48:42.775Z,11.48
2022-11-04T21:51:14.704Z,12.13
2022-11-04T21:53:41.530Z,12.87
2022-11-04T21:56:10.091Z,12.80
2022-11-04T21:58:37.244Z,13.85
2022-11-04T22:01:05.148Z,13.95
2022-11-04T22:03:31.602Z,18.95
2022-11-04T22:06:06.081Z,15.13
2022-11-04T22:08:32.638Z,14.27
2022-11-04T22:11:07.083Z,16.52
2022-11-04T22:13:33.697Z,18.30
2022-11-04T22:16:00.313Z,18.17
2022-11-04T22:18:31.824Z,20.70
2022-11-04T22:21:03.155Z,22.23
2022-11-04T22:23:29.780Z,27.33
2022-11-04T22:26:00.892Z,27.08
2022-11-04T22:28:27.489Z,23.23
2022-11-04T22:30:53.916Z,27.53
2022-11-04T22:33:20.484Z,24.13
2022-11-04T22:35:47.041Z,23.92
2022-11-04T22:38:14.261Z,24.67
2022-11-04T22:40:41.274Z,23.02
2022-11-04T22:43:07.758Z,27.03
2022-11-04T22:45:36.431Z,27.00
2022-11-04T22:48:02.941Z,22.55
2022-11-04T22:50:29.346Z,24.77
2022-11-04T22:52:55.741Z,27.30
2022-11-04T22:55:22.129Z,23.40
2022-11-04T22:57:48.489Z,19.95
2022-11-04T23:00:15.316Z,19.48
2022-11-04T23:02:41.827Z,22.73
2022-11-04T23:05:08.393Z,31.48
2022-11-04T23:07:34.791Z,18.83
2022-11-04T23:10:01.157Z,25.85
2022-11-04T23:12:27.701Z,20.52
2022-11-04T23:14:54.127Z,25.42
2022-11-04T23:17:22.605Z,21.33
2022-11-04T23:19:50.351Z,22.40
2022-11-04T23:22:16.715Z,24.58
2022-11-04T23:24:43.180Z,28.38
2022-11-04T23:27:09.890Z,28.25
2022-11-04T23:29:36.315Z,26.10
2022-11-04T23:32:03.306Z,21.13
2022-11-04T23:34:29.677Z,22.40
2022-11-04T23:36:56.065Z,21.75
2022-11-04T23:39:22.447Z,24.02
2022-11-04T23:41:48.861Z,20.08
2022-11-04T23:44:15.231Z,21.07
2022-11-04T23:46:43.606Z,18.88
2022-11-04T23:49:11.607Z,19.10
2022-11-04T23:51:38.119Z,22.77
2022-11-04T23:54:04.728Z,20.42
2022-11-04T23:56:31.677Z,19.73
2022-11-04T23:58:58.184Z,18.35
